EST,Max TemperatureF,Mean TemperatureF,Min TemperatureF,Max Dew PointF,MeanDew PointF,Min DewpointF,Max Humidity, Mean Humidity, Min Humidity, Max Sea Level PressureIn, Mean Sea Level PressureIn, Min Sea Level PressureIn, Max VisibilityMiles, Mean VisibilityMiles, Min VisibilityMiles, Max Wind SpeedMPH, Mean Wind SpeedMPH, Max Gust SpeedMPH,PrecipitationIn, CloudCover, Events, WindDirDegrees
2013-2-1,59,46,30,37,33,28,100,73,36,30.36,30.30,30.26,10,10,10,18,3,25,0.00,0,,300
2013-2-2,62,43,24,34,27,19,100,66,25,30.38,30.29,30.18,10,10,10,7,1,,0.00,0,,201
2013-2-3,64,52,39,43,34,30,93,60,28,30.21,30.13,30.06,10,10,10,17,6,24,0.00,1,,288
2013-2-4,62,47,32,45,36,32,100,69,34,30.15,30.10,30.05,10,10,10,9,1,,0.00,0,,252
2013-2-5,66,50,35,57,48,36,100,83,60,30.11,30.05,30.02,10,10,7,9,1,,0.00,4,Rain,241
2013-2-6,71,62,53,59,56,54,100,84,57,30.17,30.11,30.05,10,10,5,6,1,,0.00,6,Rain,109
2013-2-7,69,61,53,66,60,54,100,96,83,30.11,29.95,29.74,10,9,3,18,5,25,0.00,7,Rain,156
2013-2-8,59,52,44,54,51,45,100,96,82,30.11,30.01,29.91,10,9,0,14,8,,0.00,6,Fog,304
2013-2-9,68,52,37,45,40,34,100,71,35,30.30,30.22,30.12,10,8,0,12,3,,0.00,0,Fog,81
2013-2-10,73,58,42,59,50,39,100,75,50,30.31,30.23,30.13,10,10,10,16,7,25,0.00,2,,125
2013-2-11,78,68,59,64,61,59,100,83,57,30.18,30.13,30.05,10,10,10,13,7,22,0.00,6,Rain-Thunderstorm,190
2013-2-12,71,65,59,70,62,59,100,99,88,30.10,29.99,29.82,10,8,2,14,3,21,0.00,8,Rain-Thunderstorm,98
2013-2-13,80,66,50,70,59,45,94,72,39,29.99,29.85,29.77,10,10,10,22,12,30,0.00,7,Rain-Thunderstorm,268
2013-2-14,50,44,35,48,43,36,100,90,76,30.12,30.05,29.96,10,10,5,10,3,,0.00,2,Rain,327
2013-2-15,64,47,30,46,37,30,100,79,32,30.13,30.06,30.00,10,8,0,8,1,,0.00,1,Fog,348
2013-2-16,50,42,33,43,34,21,100,76,45,30.18,30.01,29.95,10,10,10,21,5,33,0.00,2,Rain,312
2013-2-17,50,38,26,30,22,14,100,64,24,30.36,30.29,30.18,10,10,10,17,5,21,0.00,0,,321
2013-2-18,60,43,26,37,29,21,100,65,26,30.43,30.34,30.24,10,10,7,12,2,17,0.00,0,,138
2013-2-19,64,52,39,63,48,37,100,90,64,30.23,30.11,30.01,10,8,0,18,5,22,0.00,5,Fog-Rain,194
2013-2-20,60,46,32,43,34,25,100,71,27,30.21,30.15,30.11,10,8,0,9,2,,0.00,0,Fog,332
2013-2-21,71,52,32,48,39,30,100,68,32,30.19,30.10,30.03,10,10,10,7,1,,0.00,1,,133
2013-2-22,69,62,55,64,60,48,100,93,72,30.09,30.05,30.00,10,8,2,9,4,,0.00,6,Rain,146
2013-2-23,71,66,60,68,64,61,100,98,88,29.99,29.92,29.84,10,9,2,10,6,18,0.00,8,Rain-Thunderstorm,205
2013-2-24,71,61,51,61,52,43,100,76,35,30.02,29.96,29.87,10,10,5,10,3,,0.00,4,,5
2013-2-25,59,55,51,59,54,50,100,97,72,29.98,29.91,29.80,10,7,1,14,5,23,0.00,8,Rain-Thunderstorm,88
2013-2-26,73,63,53,68,58,46,100,81,47,29.85,29.71,29.64,10,9,2,20,10,29,0.00,4,Rain-Thunderstorm,193
2013-2-27,59,52,44,48,44,37,100,76,51,29.99,29.93,29.85,10,10,10,15,7,18,0.00,0,,271
2013-2-28,64,50,37,46,39,32,100,66,32,29.99,29.94,29.90,10,10,2,22,6,28,0.00,0,,285